Time;durP1;ratioP1;P1;durP2;ratioP2;P2;SDS_P1;SDS_P2;PMS_P1;PMS_P2;Temp;Humidity;BMP_temperature;BMP_pressure;BME280_temperature;BME280_humidity;BME280_pressure;Samples;Min_cycle;Max_cycle;Signal;HPM_P1;HPM_P2
2023/03/13 00:00:45;;;;;;;1.30;1.20;;;7.60;97.30;;;;;;5063947;28;20453;-86
2023/03/13 00:03:10;;;;;;;2.13;1.97;;;7.60;97.30;;;;;;5070734;28;20332;-86
2023/03/13 00:05:36;;;;;;;1.40;1.30;;;7.60;97.30;;;;;;5073968;28;20181;-86
2023/03/13 00:08:02;;;;;;;1.57;1.47;;;7.60;97.30;;;;;;5057841;28;20210;-85
2023/03/13 00:10:28;;;;;;;1.20;1.10;;;7.70;97.30;;;;;;5061575;28;20502;-86
2023/03/13 00:12:54;;;;;;;1.83;1.73;;;7.70;97.30;;;;;;5065861;28;20193;-86
2023/03/13 00:15:19;;;;;;;1.50;1.40;;;7.70;97.30;;;;;;5073336;28;20181;-86
2023/03/13 00:17:45;;;;;;;0.90;0.80;;;7.70;97.30;;;;;;5057350;28;20399;-86
2023/03/13 00:20:11;;;;;;;2.50;1.70;;;7.70;97.30;;;;;;5057180;28;20171;-86
2023/03/13 00:22:36;;;;;;;2.60;2.40;;;7.70;97.30;;;;;;5061499;28;20363;-86
2023/03/13 00:25:02;;;;;;;1.40;1.30;;;7.70;97.30;;;;;;5072041;28;20440;-88
2023/03/13 00:27:30;;;;;;;4.13;1.77;;;7.80;97.30;;;;;;5069903;28;20345;-85
2023/03/13 00:29:56;;;;;;;3.40;3.20;;;7.80;97.30;;;;;;5086845;28;20664;-86
2023/03/13 00:32:21;;;;;;;2.10;1.80;;;7.80;97.30;;;;;;5089882;28;20424;-86
2023/03/13 00:34:47;;;;;;;1.37;1.27;;;7.80;97.30;;;;;;5078535;28;20279;-87
2023/03/13 00:37:13;;;;;;;5.65;1.95;;;7.80;97.30;;;;;;5088477;28;20161;-87
2023/03/13 00:39:38;;;;;;;1.10;1.00;;;7.80;97.30;;;;;;5055495;28;20725;-86
2023/03/13 00:42:04;;;;;;;2.63;1.60;;;7.80;97.30;;;;;;5068044;28;20235;-86
2023/03/13 00:44:30;;;;;;;1.53;1.43;;;7.90;97.30;;;;;;5067048;28;20197;-87
2023/03/13 00:46:55;;;;;;;1.10;1.00;;;8.00;97.30;;;;;;5066330;28;20181;-87
2023/03/13 00:49:21;;;;;;;1.33;1.23;;;8.00;97.30;;;;;;5062556;28;20212;-87
2023/03/13 00:51:46;;;;;;;1.20;1.10;;;8.00;97.30;;;;;;5069392;28;20206;-86
2023/03/13 00:54:12;;;;;;;1.55;1.40;;;8.10;97.30;;;;;;5060262;28;20198;-87
2023/03/13 00:56:37;;;;;;;1.20;1.10;;;8.10;97.30;;;;;;5074947;28;20159;-87
2023/03/13 00:59:03;;;;;;;1.40;1.30;;;8.10;97.30;;;;;;5066878;28;20177;-87
2023/03/13 01:01:32;;;;;;;1.50;1.40;;;8.20;97.30;;;;;;5055557;28;20160;-86
2023/03/13 01:04:00;;;;;;;3.00;2.30;;;8.20;97.30;;;;;;5063352;28;20239;-86
2023/03/13 01:06:28;;;;;;;1.10;1.00;;;8.20;97.30;;;;;;5059885;28;20430;-87
2023/03/13 01:08:54;;;;;;;1.93;1.77;;;8.20;97.30;;;;;;5064151;28;20436;-87
2023/03/13 01:11:22;;;;;;;1.37;1.30;;;8.30;97.30;;;;;;5070088;28;20381;-86
2023/03/13 01:13:48;;;;;;;1.33;1.23;;;8.30;97.30;;;;;;5061649;28;20428;-86
2023/03/13 01:16:19;;;;;;;18.75;1.95;;;8.30;97.30;;;;;;5063444;28;20416;-86
2023/03/13 01:18:48;;;;;;;2.35;1.45;;;8.30;97.30;;;;;;5059348;28;20642;-85
2023/03/13 01:21:15;;;;;;;2.25;2.05;;;8.30;97.30;;;;;;5063374;28;20503;-87
2023/03/13 01:23:40;;;;;;;1.00;0.90;;;8.40;97.30;;;;;;5058292;28;20452;-87
2023/03/13 01:26:07;;;;;;;23.80;1.80;;;8.40;97.30;;;;;;5084995;28;20217;-85
2023/03/13 01:28:34;;;;;;;1.60;1.50;;;8.40;97.30;;;;;;5074568;28;20175;-86
2023/03/13 01:31:00;;;;;;;1.47;1.37;;;8.40;97.30;;;;;;5063528;28;20408;-86
2023/03/13 01:33:26;;;;;;;4.10;2.80;;;8.40;97.30;;;;;;5071847;28;20523;-87
2023/03/13 01:35:59;;;;;;;3.17;2.97;;;8.40;97.30;;;;;;5071699;28;20490;-87
2023/03/13 01:38:24;;;;;;;8.43;2.80;;;8.40;97.30;;;;;;5070560;28;20175;-87
2023/03/13 01:40:50;;;;;;;5.47;3.17;;;8.40;97.30;;;;;;5068548;28;20226;-87
2023/03/13 01:43:20;;;;;;;16.53;2.07;;;8.40;97.30;;;;;;5060958;28;20208;-86
2023/03/13 01:45:57;;;;;;;4.50;1.75;;;8.40;97.30;;;;;;5063383;28;20213;-86
2023/03/13 01:49:02;;;;;;;1.10;1.00;;;8.40;97.30;;;;;;5081589;28;20547;-86
2023/03/13 01:51:28;;;;;;;1.20;1.10;;;8.30;97.30;;;;;;5066519;28;20789;-87
2023/03/13 01:54:10;;;;;;;1.90;1.80;;;8.30;97.30;;;;;;5059200;28;20427;-87
2023/03/13 01:56:43;;;;;;;1.73;1.67;;;8.30;97.30;;;;;;5052601;28;20428;-86
2023/03/13 01:59:14;;;;;;;1.40;1.20;;;8.30;97.30;;;;;;5066376;28;20393;-85
2023/03/13 02:01:42;;;;;;;2.00;1.90;;;8.20;97.30;;;;;;5078849;28;20423;-86
2023/03/13 02:04:08;;;;;;;1.10;1.00;;;8.20;97.30;;;;;;5085021;28;20513;-85
2023/03/13 02:06:37;;;;;;;1.87;1.80;;;8.20;97.30;;;;;;5063865;28;20405;-86
2023/03/13 02:09:08;;;;;;;1.83;1.70;;;8.20;97.30;;;;;;5060129;28;20293;-85
2023/03/13 02:11:41;;;;;;;1.25;1.15;;;8.20;97.30;;;;;;5055954;28;20214;-86
2023/03/13 02:14:06;;;;;;;1.55;1.20;;;8.20;97.30;;;;;;5076507;28;20724;-86
2023/03/13 02:16:33;;;;;;;1.20;1.10;;;8.20;97.30;;;;;;5064132;28;20469;-86
2023/03/13 02:19:02;;;;;;;3.47;3.27;;;8.20;97.30;;;;;;5062883;28;20169;-86
2023/03/13 02:21:40;;;;;;;1.93;1.83;;;8.20;97.30;;;;;;5083572;28;20442;-86
2023/03/13 02:24:14;;;;;;;2.20;1.70;;;8.30;97.30;;;;;;5071029;28;20237;-86
2023/03/13 02:26:40;;;;;;;1.10;1.00;;;8.20;97.30;;;;;;5089614;28;20968;-86
2023/03/13 02:29:05;;;;;;;2.13;1.97;;;8.30;97.30;;;;;;5062968;28;20486;-85
2023/03/13 02:31:31;;;;;;;1.85;1.15;;;8.30;97.30;;;;;;5065894;28;20198;-86
2023/03/13 02:33:59;;;;;;;3.13;2.93;;;8.30;97.30;;;;;;5084344;28;20200;-85
2023/03/13 02:36:26;;;;;;;1.15;1.05;;;8.40;97.30;;;;;;5070047;28;20173;-86
2023/03/13 02:38:56;;;;;;;1.50;1.40;;;8.40;97.30;;;;;;5064696;28;20224;-85
2023/03/13 02:41:23;;;;;;;1.07;0.97;;;8.50;97.30;;;;;;5066566;28;20502;-86
2023/03/13 02:43:48;;;;;;;13.90;2.15;;;8.50;97.30;;;;;;5069597;28;20569;-86
2023/03/13 02:46:17;;;;;;;5.23;1.33;;;8.50;97.30;;;;;;5066206;28;20268;-85
2023/03/13 02:48:49;;;;;;;2.13;1.97;;;8.60;97.30;;;;;;5062983;28;20205;-86
2023/03/13 02:51:22;;;;;;;1.55;1.50;;;8.60;97.30;;;;;;5068096;28;20607;-85
2023/03/13 02:53:49;;;;;;;7.40;2.70;;;8.60;97.30;;;;;;5086813;28;20451;-85
2023/03/13 02:56:18;;;;;;;1.83;1.73;;;8.60;97.30;;;;;;5059095;28;20451;-85
2023/03/13 02:58:44;;;;;;;3.30;3.10;;;8.60;97.30;;;;;;5062455;28;20597;-86
2023/03/13 03:01:10;;;;;;;1.45;1.35;;;8.60;97.30;;;;;;5061227;28;20407;-86
2023/03/13 03:03:35;;;;;;;5.25;2.90;;;8.60;97.30;;;;;;5065915;28;20542;-86
2023/03/13 03:06:03;;;;;;;4.23;2.43;;;8.60;97.30;;;;;;5067732;28;20287;-86
2023/03/13 03:08:29;;;;;;;2.17;1.20;;;8.60;97.30;;;;;;5088216;28;20205;-86
2023/03/13 03:10:55;;;;;;;2.07;1.27;;;8.60;97.30;;;;;;5055512;28;20425;-86
2023/03/13 03:13:20;;;;;;;4.40;1.50;;;8.60;97.30;;;;;;5067103;28;20644;-86
2023/03/13 03:15:46;;;;;;;12.00;3.07;;;8.60;97.30;;;;;;5074481;28;20222;-86
2023/03/13 03:18:11;;;;;;;3.70;2.40;;;8.70;97.30;;;;;;5073295;28;20195;-85
2023/03/13 03:20:37;;;;;;;1.90;1.80;;;8.60;97.30;;;;;;5057441;28;20174;-87
2023/03/13 03:23:02;;;;;;;1.33;1.23;;;8.70;97.30;;;;;;5078990;28;20727;-86
2023/03/13 03:25:28;;;;;;;1.23;1.13;;;8.70;97.30;;;;;;5059482;28;20261;-85
2023/03/13 03:27:53;;;;;;;4.80;2.20;;;8.70;97.30;;;;;;5060624;28;20193;-86
2023/03/13 03:30:19;;;;;;;5.57;2.10;;;8.70;97.30;;;;;;5072806;28;20167;-86
2023/03/13 03:32:44;;;;;;;1.17;1.07;;;8.70;97.30;;;;;;5058497;28;20157;-85
2023/03/13 03:35:10;;;;;;;6.00;2.17;;;8.70;97.30;;;;;;5081164;28;20335;-85
2023/03/13 03:37:35;;;;;;;2.17;2.03;;;8.70;97.30;;;;;;5059356;28;20170;-85
2023/03/13 03:40:01;;;;;;;1.37;1.27;;;8.70;97.30;;;;;;5059259;28;20713;-86
2023/03/13 03:42:26;;;;;;;1.40;1.30;;;8.80;97.30;;;;;;5068510;28;20168;-86
2023/03/13 03:44:52;;;;;;;15.60;2.03;;;8.80;97.30;;;;;;5064359;28;20194;-86
2023/03/13 03:47:17;;;;;;;1.00;0.90;;;8.80;97.30;;;;;;5067843;28;20254;-85
2023/03/13 03:49:43;;;;;;;10.87;1.83;;;8.90;97.30;;;;;;5067511;28;20220;-85
2023/03/13 03:52:08;;;;;;;1.20;1.10;;;8.90;97.30;;;;;;5071501;28;20602;-84
2023/03/13 03:54:34;;;;;;;2.10;1.90;;;8.90;97.30;;;;;;5062354;28;20192;-86
2023/03/13 03:56:59;;;;;;;1.23;1.20;;;8.90;97.30;;;;;;5073389;28;20177;-86
2023/03/13 03:59:25;;;;;;;1.53;1.43;;;8.90;97.30;;;;;;5070084;28;20201;-86
2023/03/13 04:01:50;;;;;;;3.13;1.97;;;8.90;97.30;;;;;;5063851;28;20610;-86
2023/03/13 04:04:16;;;;;;;9.30;1.83;;;8.90;97.30;;;;;;5068653;28;20225;-86
2023/03/13 04:06:41;;;;;;;1.17;1.07;;;8.90;97.30;;;;;;5059288;28;20178;-85
2023/03/13 04:09:07;;;;;;;3.50;2.17;;;8.90;97.30;;;;;;5059008;28;20210;-86
2023/03/13 04:11:32;;;;;;;1.53;1.43;;;8.90;97.30;;;;;;5064943;28;20171;-86
2023/03/13 04:13:58;;;;;;;1.10;1.00;;;8.90;97.30;;;;;;5066624;28;20195;-85
2023/03/13 04:16:23;;;;;;;4.20;1.63;;;8.80;97.30;;;;;;5070584;28;20164;-85
2023/03/13 04:18:49;;;;;;;7.90;1.80;;;8.80;97.30;;;;;;5066230;28;20359;-86
2023/03/13 04:21:14;;;;;;;1.40;1.30;;;8.80;97.30;;;;;;5070750;28;20211;-86
2023/03/13 04:23:40;;;;;;;1.53;1.43;;;8.80;97.30;;;;;;5059470;28;20285;-85
2023/03/13 04:26:05;;;;;;;1.10;0.90;;;8.80;97.30;;;;;;5065711;28;20288;-85
2023/03/13 04:28:31;;;;;;;2.10;1.70;;;8.80;97.30;;;;;;5057027;28;20198;-85
2023/03/13 04:30:57;;;;;;;1.70;1.60;;;8.70;97.30;;;;;;5058834;28;20168;-85
2023/03/13 04:33:23;;;;;;;2.90;2.70;;;8.70;97.30;;;;;;5059345;28;20190;-86
2023/03/13 04:35:49;;;;;;;1.20;1.10;;;8.70;97.30;;;;;;5067566;28;20413;-86
2023/03/13 04:38:14;;;;;;;2.00;1.90;;;8.70;97.30;;;;;;5063317;28;20510;-86
2023/03/13 04:40:42;;;;;;;1.30;1.20;;;8.70;97.30;;;;;;5053824;28;20183;-86
2023/03/13 04:43:07;;;;;;;1.37;1.30;;;8.70;97.30;;;;;;5063840;28;20264;-85
2023/03/13 04:45:33;;;;;;;2.75;2.15;;;8.70;97.30;;;;;;5069435;28;20495;-86
2023/03/13 04:47:59;;;;;;;0.90;0.80;;;8.70;97.30;;;;;;5064514;28;20455;-86
2023/03/13 04:50:24;;;;;;;2.33;2.00;;;8.70;97.30;;;;;;5067204;28;20162;-86
2023/03/13 04:52:50;;;;;;;1.20;1.10;;;8.60;97.30;;;;;;5070434;28;20181;-85
2023/03/13 04:55:16;;;;;;;2.20;1.67;;;8.60;97.30;;;;;;5067940;28;20164;-85
2023/03/13 04:57:41;;;;;;;3.13;1.33;;;8.60;97.30;;;;;;5067554;28;20187;-86
2023/03/13 05:00:10;;;;;;;1.87;1.20;;;8.60;97.30;;;;;;5067675;28;20556;-85
2023/03/13 05:02:36;;;;;;;10.53;2.03;;;8.60;97.30;;;;;;5058251;28;20661;-86
2023/03/13 05:05:01;;;;;;;1.45;1.35;;;8.60;97.30;;;;;;5044157;28;20479;-85
2023/03/13 05:07:27;;;;;;;1.47;1.37;;;8.60;97.30;;;;;;5059772;28;20182;-86
2023/03/13 05:09:52;;;;;;;3.33;2.17;;;8.60;97.30;;;;;;5058057;28;20185;-86
2023/03/13 05:12:18;;;;;;;3.20;1.30;;;8.60;97.30;;;;;;5048605;28;20948;-85
2023/03/13 05:14:43;;;;;;;1.50;1.40;;;8.60;97.30;;;;;;5040670;28;20606;-86
2023/03/13 05:17:11;;;;;;;1.20;1.10;;;8.60;97.30;;;;;;5045267;28;20206;-86
2023/03/13 05:19:36;;;;;;;1.70;1.60;;;8.60;97.30;;;;;;5059733;28;20171;-85
2023/03/13 05:22:02;;;;;;;21.10;1.75;;;8.60;97.30;;;;;;5048465;28;20775;-85
2023/03/13 05:24:28;;;;;;;1.30;1.20;;;8.60;97.30;;;;;;5050524;28;20280;-85
2023/03/13 05:26:53;;;;;;;2.40;2.00;;;8.60;97.30;;;;;;5061753;28;20177;-83
2023/03/13 05:29:19;;;;;;;1.90;1.73;;;8.60;97.30;;;;;;5047484;28;20205;-85
2023/03/13 05:31:44;;;;;;;6.00;2.10;;;8.60;97.30;;;;;;5058342;28;20206;-85
2023/03/13 05:34:10;;;;;;;1.50;1.40;;;8.60;97.30;;;;;;5046178;28;20255;-85
2023/03/13 05:36:36;;;;;;;1.20;1.10;;;8.60;97.30;;;;;;5048401;28;20280;-85
2023/03/13 05:39:01;;;;;;;1.27;1.17;;;8.60;97.30;;;;;;5047029;28;20252;-85
2023/03/13 05:41:27;;;;;;;3.80;1.30;;;8.60;97.30;;;;;;5042877;28;20210;-85
2023/03/13 05:43:52;;;;;;;1.40;1.30;;;8.60;97.30;;;;;;5048968;28;20208;-85
2023/03/13 05:46:18;;;;;;;1.50;1.40;;;8.60;97.30;;;;;;5051848;28;20270;-85
2023/03/13 05:48:44;;;;;;;11.50;1.90;;;8.60;97.30;;;;;;5054640;28;20199;-85
2023/03/13 05:51:10;;;;;;;2.25;1.65;;;8.60;97.30;;;;;;5054935;28;20170;-85
2023/03/13 05:53:35;;;;;;;1.50;1.40;;;8.60;97.30;;;;;;5037469;28;20437;-85
2023/03/13 05:56:00;;;;;;;0.93;0.83;;;8.60;97.30;;;;;;5051809;28;20693;-86
2023/03/13 05:58:26;;;;;;;2.17;1.53;;;8.60;97.30;;;;;;5054209;28;20182;-85
2023/03/13 06:00:51;;;;;;;2.03;1.43;;;8.70;97.30;;;;;;5042557;28;20179;-86
2023/03/13 06:03:17;;;;;;;1.70;1.30;;;8.70;97.30;;;;;;5067129;28;20332;-85
2023/03/13 06:05:42;;;;;;;6.93;2.73;;;8.70;97.30;;;;;;5057510;28;20665;-85
2023/03/13 06:08:08;;;;;;;1.87;1.77;;;8.80;97.30;;;;;;5077662;28;20213;-86
2023/03/13 06:10:33;;;;;;;2.35;2.15;;;8.80;97.30;;;;;;5086271;28;20154;-86
2023/03/13 06:12:59;;;;;;;5.80;1.50;;;8.80;97.30;;;;;;5067190;28;20178;-86
2023/03/13 06:15:24;;;;;;;5.93;3.33;;;8.80;97.30;;;;;;5091491;28;20208;-87
2023/03/13 06:17:50;;;;;;;12.80;2.90;;;8.80;97.30;;;;;;5091327;28;20316;-86
2023/03/13 06:20:15;;;;;;;2.15;1.20;;;8.80;97.30;;;;;;5082725;28;20182;-86
2023/03/13 06:22:41;;;;;;;4.40;2.95;;;8.80;97.30;;;;;;5074351;28;20217;-86
2023/03/13 06:25:07;;;;;;;26.53;1.63;;;8.70;97.30;;;;;;5086750;28;20207;-85
2023/03/13 06:27:32;;;;;;;1.13;1.03;;;8.70;97.30;;;;;;5062223;28;20251;-86
2023/03/13 06:29:58;;;;;;;7.07;1.93;;;8.70;97.30;;;;;;5059369;28;20512;-86
2023/03/13 06:32:23;;;;;;;1.63;1.23;;;8.70;97.30;;;;;;5060183;28;20178;-85
2023/03/13 06:34:49;;;;;;;3.15;2.00;;;8.70;97.30;;;;;;5066233;28;20190;-86
2023/03/13 06:37:14;;;;;;;2.85;1.40;;;8.60;97.30;;;;;;5065973;28;20165;-86
2023/03/13 06:39:40;;;;;;;2.05;1.75;;;8.60;97.30;;;;;;5056131;28;20197;-86
2023/03/13 06:42:06;;;;;;;2.50;1.35;;;8.60;97.30;;;;;;5064685;28;20170;-86
2023/03/13 06:44:31;;;;;;;3.90;1.65;;;8.70;97.30;;;;;;5064127;28;20205;-86
2023/03/13 06:46:57;;;;;;;1.20;1.10;;;8.70;97.30;;;;;;5061784;28;20168;-85
2023/03/13 06:49:22;;;;;;;1.20;1.10;;;8.70;97.30;;;;;;5068296;28;20223;-83
2023/03/13 06:51:48;;;;;;;4.00;3.30;;;8.70;97.30;;;;;;5072304;28;20199;-85
2023/03/13 06:54:13;;;;;;;1.40;1.30;;;8.70;97.30;;;;;;5085260;28;20701;-85
2023/03/13 06:56:39;;;;;;;2.20;1.35;;;8.80;97.30;;;;;;5084247;28;20170;-86
2023/03/13 06:59:04;;;;;;;2.30;2.10;;;8.90;97.30;;;;;;5066600;28;20220;-86
2023/03/13 07:01:30;;;;;;;7.50;2.15;;;8.90;97.30;;;;;;5085870;28;20203;-86
2023/03/13 07:03:55;;;;;;;5.55;2.25;;;9.00;97.30;;;;;;5070265;28;20232;-86
2023/03/13 07:06:21;;;;;;;1.43;1.33;;;9.00;97.30;;;;;;5064429;28;20531;-84
2023/03/13 07:08:47;;;;;;;1.40;1.30;;;9.10;97.30;;;;;;5063369;28;20658;-87
2023/03/13 07:11:13;;;;;;;1.10;1.00;;;9.10;97.30;;;;;;5067244;28;20234;-86
2023/03/13 07:13:39;;;;;;;2.50;1.43;;;9.10;97.30;;;;;;5064335;28;20193;-87
2023/03/13 07:16:10;;;;;;;1.10;1.00;;;9.20;97.30;;;;;;5063092;28;20464;-86
2023/03/13 07:18:39;;;;;;;1.93;1.40;;;9.20;97.30;;;;;;5062638;28;20170;-86
2023/03/13 07:21:05;;;;;;;3.60;2.20;;;9.20;97.30;;;;;;5067098;28;20711;-85
2023/03/13 07:23:31;;;;;;;1.90;1.40;;;9.30;97.30;;;;;;5072378;28;20466;-85
2023/03/13 07:26:00;;;;;;;1.77;1.67;;;9.30;97.30;;;;;;5066188;28;20176;-86
2023/03/13 07:28:29;;;;;;;1.20;1.10;;;9.40;97.30;;;;;;5082086;28;20444;-87
2023/03/13 07:31:10;;;;;;;1.60;1.37;;;9.40;97.30;;;;;;5079070;28;20265;-84
2023/03/13 07:33:36;;;;;;;2.60;1.30;;;9.50;97.30;;;;;;5061273;28;20261;-85
2023/03/13 07:36:02;;;;;;;1.10;1.00;;;9.50;97.30;;;;;;5064950;28;20270;-86
2023/03/13 07:38:27;;;;;;;1.40;1.30;;;9.60;97.30;;;;;;5091619;28;20253;-85
2023/03/13 07:40:55;;;;;;;2.97;1.10;;;9.60;97.30;;;;;;5068293;28;20416;-86
2023/03/13 07:43:22;;;;;;;0.93;0.83;;;9.70;97.30;;;;;;5061074;28;20222;-86
2023/03/13 07:45:58;;;;;;;2.25;1.65;;;9.70;97.30;;;;;;5082767;28;20773;-85
2023/03/13 07:48:27;;;;;;;1.30;1.20;;;9.80;97.30;;;;;;5069409;28;20546;-85
2023/03/13 07:50:53;;;;;;;1.67;0.90;;;9.90;97.30;;;;;;5066400;28;20420;-86
2023/03/13 07:53:22;;;;;;;1.30;1.20;;;10.00;97.30;;;;;;5073026;28;20247;-86
2023/03/13 07:55:59;;;;;;;0.73;0.70;;;10.10;97.30;;;;;;5074714;28;20505;-85
2023/03/13 07:58:27;;;;;;;1.20;1.10;;;10.10;97.30;;;;;;5060532;28;20485;-85
2023/03/13 08:00:53;;;;;;;0.97;0.87;;;10.20;97.30;;;;;;5087380;28;20404;-84
2023/03/13 08:03:19;;;;;;;1.33;1.23;;;10.20;97.30;;;;;;5061519;28;20556;-84
2023/03/13 08:05:44;;;;;;;1.50;1.40;;;10.30;97.30;;;;;;5083067;28;20655;-85
2023/03/13 08:08:10;;;;;;;4.20;2.05;;;10.30;97.30;;;;;;5083235;28;20203;-85
2023/03/13 08:10:36;;;;;;;1.00;0.90;;;10.40;97.30;;;;;;5056942;28;20206;-84
2023/03/13 08:13:01;;;;;;;1.00;0.90;;;10.50;97.30;;;;;;5061729;28;20185;-85
2023/03/13 08:15:27;;;;;;;0.97;0.87;;;10.50;97.30;;;;;;5064593;28;20547;-83
2023/03/13 08:17:56;;;;;;;1.03;0.93;;;10.60;97.30;;;;;;5073807;28;20204;-84
2023/03/13 08:20:21;;;;;;;1.10;1.00;;;10.60;97.30;;;;;;5073511;28;20178;-85
2023/03/13 08:22:49;;;;;;;1.67;1.57;;;10.70;97.30;;;;;;5061618;28;20430;-83
2023/03/13 08:25:15;;;;;;;0.90;0.80;;;10.70;97.30;;;;;;5072544;28;20181;-85
2023/03/13 08:27:40;;;;;;;0.90;0.80;;;10.70;97.30;;;;;;5058910;28;20412;-84
2023/03/13 08:30:07;;;;;;;2.47;2.27;;;10.80;97.30;;;;;;5072436;28;20915;-84
2023/03/13 08:32:34;;;;;;;1.00;0.90;;;10.80;97.30;;;;;;5070028;28;20200;-82
2023/03/13 08:35:00;;;;;;;0.90;0.80;;;10.80;97.30;;;;;;5061135;28;20535;-82
2023/03/13 08:37:29;;;;;;;0.90;0.80;;;10.80;97.30;;;;;;5063140;28;20441;-82
2023/03/13 08:39:55;;;;;;;1.00;0.90;;;10.80;97.30;;;;;;5063736;28;20186;-84
2023/03/13 08:42:21;;;;;;;1.13;1.03;;;10.80;97.30;;;;;;5062762;28;20432;-84
2023/03/13 08:44:47;;;;;;;1.00;0.90;;;10.70;97.30;;;;;;5064600;28;20324;-85
2023/03/13 08:47:12;;;;;;;18.07;1.90;;;10.60;97.30;;;;;;5073131;28;20204;-84
2023/03/13 08:49:38;;;;;;;1.00;0.90;;;10.50;97.30;;;;;;5059995;28;20196;-85
2023/03/13 08:52:04;;;;;;;0.97;0.87;;;10.50;97.30;;;;;;5058885;28;20223;-84
2023/03/13 08:54:30;;;;;;;0.80;0.70;;;10.50;97.30;;;;;;5059857;28;20199;-84
2023/03/13 08:56:56;;;;;;;0.90;0.80;;;10.50;97.30;;;;;;5073282;28;20423;-85
2023/03/13 08:59:22;;;;;;;2.50;1.70;;;10.50;97.30;;;;;;5068677;28;20416;-86
2023/03/13 09:01:47;;;;;;;1.17;1.00;;;10.60;97.30;;;;;;5060829;28;20237;-84
2023/03/13 09:04:13;;;;;;;0.90;0.80;;;10.60;97.30;;;;;;5052647;28;20777;-84
2023/03/13 09:06:38;;;;;;;2.40;1.33;;;10.70;97.30;;;;;;5071276;28;20210;-84
2023/03/13 09:09:06;;;;;;;1.07;0.97;;;10.70;97.30;;;;;;5065145;28;20490;-83
2023/03/13 09:11:32;;;;;;;0.87;0.77;;;10.70;97.30;;;;;;5069830;28;20698;-85
2023/03/13 09:13:58;;;;;;;0.80;0.80;;;10.80;97.30;;;;;;5068619;28;20463;-85
2023/03/13 09:16:26;;;;;;;1.00;0.90;;;10.80;97.30;;;;;;5057402;28;20415;-84
2023/03/13 09:18:52;;;;;;;0.90;0.80;;;10.90;97.30;;;;;;5063811;28;20178;-85
2023/03/13 09:21:30;;;;;;;3.27;1.20;;;10.90;97.30;;;;;;5069735;28;20256;-85
2023/03/13 09:23:56;;;;;;;1.73;1.67;;;11.00;97.30;;;;;;5060693;28;20462;-86
2023/03/13 09:26:22;;;;;;;1.00;0.90;;;11.00;97.30;;;;;;5070019;28;20926;-86
2023/03/13 09:28:48;;;;;;;1.10;1.00;;;11.00;97.30;;;;;;5068224;28;20451;-85
2023/03/13 09:31:19;;;;;;;0.90;0.80;;;11.10;97.30;;;;;;5066007;28;20411;-86
2023/03/13 09:33:47;;;;;;;1.60;1.50;;;11.20;97.30;;;;;;5063910;28;20786;-85
2023/03/13 09:36:13;;;;;;;1.17;1.07;;;11.20;97.30;;;;;;5065644;28;20413;-86
2023/03/13 09:38:39;;;;;;;4.00;2.77;;;11.30;97.30;;;;;;5073786;28;20452;-86
2023/03/13 09:41:22;;;;;;;1.10;1.00;;;11.40;97.30;;;;;;5077229;28;20816;-85
2023/03/13 09:43:53;;;;;;;1.50;1.47;;;11.40;97.30;;;;;;5055309;28;20467;-84
2023/03/13 09:46:26;;;;;;;2.63;1.77;;;11.50;97.30;;;;;;5065626;28;20447;-85
2023/03/13 09:48:58;;;;;;;3.37;2.27;;;11.50;97.30;;;;;;5057101;28;20834;-85
2023/03/13 09:51:37;;;;;;;1.20;1.10;;;11.60;97.30;;;;;;5057685;28;20421;-86
2023/03/13 09:54:22;;;;;;;2.00;1.00;;;11.60;97.30;;;;;;5059636;28;20437;-86
2023/03/13 09:57:33;;;;;;;0.90;0.80;;;11.70;97.30;;;;;;5069914;28;20405;-85
2023/03/13 10:00:21;;;;;;;1.10;1.00;;;11.70;97.30;;;;;;5011973;28;20512;-86
2023/03/13 10:02:56;;;;;;;1.10;1.00;;;11.80;97.30;;;;;;5072403;28;20763;-85
2023/03/13 10:05:25;;;;;;;1.00;1.00;;;11.80;97.30;;;;;;5090353;28;20780;-86
2023/03/13 10:07:56;;;;;;;1.00;0.90;;;11.90;97.30;;;;;;5083267;28;20465;-85
2023/03/13 10:10:46;;;;;;;1.20;1.10;;;11.90;97.30;;;;;;5064381;28;20420;-86
2023/03/13 10:13:21;;;;;;;1.37;1.27;;;11.90;97.30;;;;;;5069126;28;20499;-86
2023/03/13 10:15:58;;;;;;;1.00;0.90;;;11.90;97.30;;;;;;5057917;28;20425;-86
2023/03/13 10:18:23;;;;;;;0.90;0.80;;;11.90;97.30;;;;;;5078146;28;20477;-86
2023/03/13 10:20:57;;;;;;;1.00;0.90;;;12.00;97.30;;;;;;5071901;28;20418;-86
2023/03/13 10:23:45;;;;;;;1.00;0.90;;;12.10;97.30;;;;;;5069212;28;20201;-86
2023/03/13 10:26:27;;;;;;;1.10;1.00;;;12.20;97.30;;;;;;5066249;28;20436;-86
2023/03/13 10:28:55;;;;;;;1.10;1.00;;;12.30;97.30;;;;;;5076111;28;20982;-85
2023/03/13 10:31:32;;;;;;;1.00;0.90;;;12.30;97.30;;;;;;5063260;28;20416;-86
2023/03/13 10:34:12;;;;;;;13.83;1.93;;;12.40;97.30;;;;;;5062702;28;20519;-85
2023/03/13 10:36:46;;;;;;;0.90;0.80;;;12.40;97.30;;;;;;5065958;28;20413;-84
2023/03/13 10:39:17;;;;;;;0.90;0.80;;;12.50;97.30;;;;;;5065456;28;20442;-87
2023/03/13 10:41:43;;;;;;;1.23;1.13;;;12.60;97.30;;;;;;5076472;28;20444;-86
2023/03/13 10:44:17;;;;;;;1.50;1.40;;;12.70;97.30;;;;;;5067919;28;20865;-86
2023/03/13 10:46:45;;;;;;;0.83;0.73;;;12.80;97.30;;;;;;5064194;28;20182;-86
2023/03/13 10:49:22;;;;;;;1.00;0.90;;;12.80;97.30;;;;;;5076356;28;20460;-85
2023/03/13 10:51:53;;;;;;;0.90;0.80;;;12.90;97.30;;;;;;5070011;28;20412;-85
2023/03/13 10:54:28;;;;;;;1.23;1.13;;;12.90;97.30;;;;;;5095246;28;20443;-86
2023/03/13 10:57:18;;;;;;;1.03;0.90;;;13.00;97.30;;;;;;5067597;28;20480;-85
2023/03/13 10:59:49;;;;;;;0.90;0.80;;;13.10;97.30;;;;;;5058871;28;20431;-85
2023/03/13 11:02:25;;;;;;;0.90;0.80;;;13.10;97.30;;;;;;5072011;28;20846;-85
2023/03/13 11:04:52;;;;;;;0.97;0.93;;;13.20;97.30;;;;;;5073599;28;20467;-86
2023/03/13 11:07:36;;;;;;;0.90;0.80;;;13.30;97.30;;;;;;5059565;28;20421;-85
2023/03/13 11:10:19;;;;;;;1.37;1.27;;;13.40;97.30;;;;;;5078261;28;20468;-86
2023/03/13 11:12:51;;;;;;;0.80;0.70;;;13.50;97.30;;;;;;5075239;28;20791;-85
2023/03/13 11:15:29;;;;;;;1.93;1.00;;;13.50;97.30;;;;;;5081003;28;20411;-86
2023/03/13 11:18:09;;;;;;;0.90;0.80;;;13.70;97.30;;;;;;5070244;28;20566;-86
2023/03/13 11:20:38;;;;;;;2.03;1.90;;;13.80;97.30;;;;;;5060009;28;20417;-87
2023/03/13 11:23:31;;;;;;;1.17;1.10;;;14.00;97.30;;;;;;5063661;28;20405;-86
2023/03/13 11:26:11;;;;;;;1.20;1.10;;;14.00;97.30;;;;;;5063811;28;20420;-86
2023/03/13 11:28:54;;;;;;;1.30;1.20;;;14.00;97.30;;;;;;5061327;28;20460;-87
2023/03/13 11:31:30;;;;;;;0.90;0.80;;;14.00;97.30;;;;;;5064489;28;20823;-85
2023/03/13 11:34:07;;;;;;;0.70;0.70;;;14.00;97.30;;;;;;5069124;28;20512;-86
2023/03/13 11:36:37;;;;;;;1.93;1.00;;;14.10;97.30;;;;;;5083419;28;20892;-87
2023/03/13 11:39:14;;;;;;;1.10;1.00;;;14.10;97.30;;;;;;5064971;28;20432;-86
2023/03/13 11:41:59;;;;;;;0.90;0.80;;;14.10;97.30;;;;;;5074681;28;20420;-85
2023/03/13 11:44:40;;;;;;;1.00;0.90;;;14.20;97.30;;;;;;5068150;28;20946;-86
2023/03/13 11:47:30;;;;;;;1.20;0.93;;;14.30;97.30;;;;;;5068056;28;20420;-85
2023/03/13 11:50:13;;;;;;;1.30;1.20;;;14.30;97.30;;;;;;5056664;28;20899;-87
2023/03/13 11:52:54;;;;;;;1.10;1.00;;;14.40;97.30;;;;;;5082788;28;20827;-87
2023/03/13 11:55:33;;;;;;;0.90;0.80;;;14.50;97.30;;;;;;5079214;28;20401;-87
2023/03/13 11:58:23;;;;;;;1.00;0.90;;;14.60;97.30;;;;;;5081961;28;20424;-86
2023/03/13 12:01:13;;;;;;;0.83;0.77;;;14.70;97.30;;;;;;5060932;28;20398;-85
2023/03/13 12:03:57;;;;;;;0.90;0.80;;;14.80;97.30;;;;;;5071738;28;20482;-86
2023/03/13 12:06:37;;;;;;;1.10;1.00;;;15.00;97.30;;;;;;5063083;28;20787;-85
2023/03/13 12:09:11;;;;;;;1.10;1.00;;;15.30;97.30;;;;;;5077771;28;20448;-86
2023/03/13 12:11:51;;;;;;;1.10;1.00;;;15.40;97.30;;;;;;5059552;28;20939;-86
2023/03/13 12:14:38;;;;;;;0.90;0.80;;;15.40;97.30;;;;;;5086314;28;20578;-85
2023/03/13 12:17:11;;;;;;;1.23;1.13;;;15.30;97.30;;;;;;5064095;28;20935;-86
2023/03/13 12:19:56;;;;;;;0.93;0.83;;;15.30;97.30;;;;;;5065225;28;20569;-85
2023/03/13 12:22:30;;;;;;;1.57;1.47;;;15.20;97.30;;;;;;5071536;28;20416;-86
2023/03/13 12:25:04;;;;;;;1.10;1.00;;;15.20;97.30;;;;;;5066072;28;20452;-85
2023/03/13 12:27:35;;;;;;;0.77;0.73;;;15.10;97.30;;;;;;5073819;28;20424;-86
2023/03/13 12:30:13;;;;;;;0.93;0.87;;;15.10;97.30;;;;;;5059418;28;20453;-86
2023/03/13 12:33:08;;;;;;;1.03;0.93;;;15.10;97.30;;;;;;5078478;28;20517;-86
2023/03/13 12:35:36;;;;;;;1.07;0.97;;;15.10;97.30;;;;;;5088186;28;20412;-86
2023/03/13 12:38:23;;;;;;;1.17;0.90;;;15.10;97.30;;;;;;5087308;28;20497;-86
2023/03/13 12:41:24;;;;;;;1.30;1.20;;;15.10;97.30;;;;;;5069696;28;20406;-86
2023/03/13 12:43:52;;;;;;;0.87;0.83;;;15.10;97.30;;;;;;5069249;28;21135;-86
2023/03/13 12:46:37;;;;;;;1.30;1.20;;;15.20;97.30;;;;;;5063340;28;20454;-86
2023/03/13 12:49:13;;;;;;;1.10;0.90;;;15.30;97.30;;;;;;5083769;28;20503;-86
2023/03/13 12:51:58;;;;;;;0.97;0.90;;;15.60;97.30;;;;;;5061922;28;20452;-86
2023/03/13 12:54:26;;;;;;;1.00;0.90;;;15.80;97.30;;;;;;5057129;28;20433;-86
2023/03/13 12:57:01;;;;;;;0.90;0.80;;;15.90;97.30;;;;;;5080609;28;20501;-86
2023/03/13 12:59:38;;;;;;;1.03;0.90;;;16.00;97.30;;;;;;5073376;28;21017;-86
2023/03/13 13:02:19;;;;;;;1.00;0.90;;;16.10;97.30;;;;;;5074972;28;20421;-86
2023/03/13 13:04:47;;;;;;;0.90;0.80;;;16.20;97.30;;;;;;5058562;28;20479;-86